Terminal Aerodrome Forecast
Issued by NWS

Home | Current Version | Previous Version | Graphics & Text | Print | Product List | Glossary On
Versions: 1 2 3 4 5 6 7 8 9 10 11 12 13
000
FTUS45 KGGW 192320
TAFGDV
TAF
KGDV 192320Z 2000/2024 14009KT P6SM SCT090
     FM200600 18006KT P6SM BKN080
     FM201000 VRB03KT P6SM BKN070=

USA.gov is the U.S. government's official web portal to all federal, state and local government web resources and services.